This is the latest recevied weather packets stored in our database for station/object KM5R. If no packets are shown the sender has not sent any weather packets the latest 10 day(s).
| Time | Temp. | Humidity | Pressure | Rain* | Wind** | Luminosity | Snow |
|---|---|---|---|---|---|---|---|
| 1777493704 | 15° C | 83% | 1016 hPa | 0 mm | - | 94 W/m² | - |
| 1777493401 | 15° C | 83% | 1016.7 hPa | 0 mm | - | 57 W/m² | - |
| 1777493097 | 15° C | 82% | 1016.5 hPa | 0 mm | - | 83 W/m² | - |
| 1777492794 | 15° C | 83% | 1016.2 hPa | 0 mm | - | 103 W/m² | - |
| 1777492490 | 15° C | 83% | 1015.8 hPa | 0 mm | - | 136 W/m² | - |
| 1777492187 | 15° C | 83% | 1015.7 hPa | 0 mm | - | 100 W/m² | - |
| 1777491884 | 15° C | 83% | 1016.1 hPa | 0 mm | - | 83 W/m² | - |
| 1777491580 | 15° C | 83% | 1015.8 hPa | 0 mm | - | 72 W/m² | - |
| 1777491278 | 15° C | 83% | 1015.4 hPa | 0 mm | - | 117 W/m² | - |
| 1777490974 | 15° C | 84% | 1015.4 hPa | 0 mm | - | 176 W/m² | - |
| 1777490670 | 15° C | 84% | 1016 hPa | 0 mm | - | 132 W/m² | - |
| 1777490366 | 15° C | 84% | 1015.8 hPa | 0 mm | - | 162 W/m² | - |
| 1777490064 | 14.44° C | 85% | 1016 hPa | 0 mm | - | 132 W/m² | - |
| 1777489761 | 14.44° C | 85% | 1016.2 hPa | 0 mm | - | 124 W/m² | - |
| 1777489459 | 14.44° C | 85% | 1016.3 hPa | 0 mm | - | 114 W/m² | - |
| 1777489155 | 14.44° C | 85% | 1016 hPa | 0 mm | - | 128 W/m² | - |
| 1777488852 | 14.44° C | 85% | 1016.1 hPa | 0 mm | - | 102 W/m² | - |
| 1777488549 | 14.44° C | 86% | 1016.3 hPa | 0 mm | - | 195 W/m² | - |
| 1777488247 | 15° C | 86% | 1016.4 hPa | 0 mm | - | 233 W/m² | - |
| 1777487945 | 14.44° C | 87% | 1016.6 hPa | 0 mm | - | 91 W/m² | - |
| 1777487642 | 13.89° C | 87% | 1016.2 hPa | 0 mm | - | 236 W/m² | - |
| 1777487339 | 13.89° C | 88% | 1016 hPa | 0 mm | - | 168 W/m² | - |
| 1777487037 | 13.89° C | 88% | 1016.6 hPa | 0 mm | - | 49 W/m² | - |
| 1777486732 | 13.89° C | 88% | 1016.8 hPa | 0 mm | - | 72 W/m² | - |
| 1777486431 | 14.44° C | 89% | 1016.5 hPa | 0 mm | - | 75 W/m² | - |
* Rain latest hour (hover to see other rain measurements)
** Current wind speed in m/s (hover to see current wind gust speed)